Time;durP1;ratioP1;P1;durP2;ratioP2;P2;SDS_P1;SDS_P2;PMS_P1;PMS_P2;Temp;Humidity;BMP_temperature;BMP_pressure;BME280_temperature;BME280_humidity;BME280_pressure;Samples;Min_cycle;Max_cycle;Signal;HPM_P1;HPM_P2
2021/08/23 00:02:04;;;;;;;;;;;;;;;;;;5020449;28;20476;-81
2021/08/23 00:04:31;;;;;;;;;;;;;;;;;;5034652;28;20044;-81
2021/08/23 00:06:56;;;;;;;;;;;;;;;;;;5021003;28;19918;-80
2021/08/23 00:09:21;;;;;;;;;;;;;;;;;;5021150;28;19913;-81
2021/08/23 00:11:47;;;;;;;;;;;;;;;;;;5020890;28;19920;-81
2021/08/23 00:14:14;;;;;;;;;;;;;;;;;;5024452;28;19906;-82
2021/08/23 00:16:39;;;;;;;;;;;;;;;;;;5021160;28;19925;-81
2021/08/23 00:19:05;;;;;;;;;;;;;;;;;;5023629;28;19941;-81
2021/08/23 00:21:30;;;;;;;;;;;;;;;;;;5018663;28;19964;-81
2021/08/23 00:24:20;;;;;;;;;;;;;;;;;;5052131;28;19910;-80
2021/08/23 00:26:46;;;;;;;;;;;;;;;;;;5023560;28;20310;-82
2021/08/23 00:29:11;;;;;;;;;;;;;;;;;;5020107;28;19909;-82
2021/08/23 00:31:37;;;;;;;;;;;;;;;;;;5019210;28;19929;-80
2021/08/23 00:34:02;;;;;;;;;;;;;;;;;;5030907;28;20471;-79
2021/08/23 00:36:28;;;;;;;;;;;;;;;;;;5020232;28;19917;-81
2021/08/23 00:38:53;;;;;;;;;;;;;;;;;;5025970;28;19897;-81
2021/08/23 00:41:18;;;;;;;;;;;;;;;;;;5025921;28;19917;-80
2021/08/23 00:43:43;;;;;;;;;;;;;;;;;;5035137;28;20235;-80
2021/08/23 00:46:09;;;;;;;;;;;;;;;;;;5025308;28;19902;-82
2021/08/23 00:48:34;;;;;;;;;;;;;;;;;;5036468;28;20113;-80
2021/08/23 00:50:59;;;;;;;;;;;;;;;;;;5026598;28;19930;-82
2021/08/23 00:53:24;;;;;;;;;;;;;;;;;;5026277;28;19917;-81
2021/08/23 00:55:50;;;;;;;;;;;;;;;;;;5021934;28;20400;-82
2021/08/23 00:58:16;;;;;;;;;;;;;;;;;;5025493;28;19921;-82
2021/08/23 01:00:41;;;;;;;;;;;;;;;;;;5017177;28;19980;-82
2021/08/23 01:03:06;;;;;;;;;;;;;;;;;;5024489;28;19992;-80
2021/08/23 01:05:31;;;;;;;;;;;;;;;;;;5020037;28;19921;-81
2021/08/23 01:07:56;;;;;;;;;;;;;;;;;;5018649;28;20379;-81
2021/08/23 01:10:23;;;;;;;;;;;;;;;;;;5041285;28;19936;-81
2021/08/23 01:12:48;;;;;;;;;;;;;;;;;;5052813;28;19964;-81
2021/08/23 01:15:13;;;;;;;;;;;;;;;;;;5038842;28;19948;-81
2021/08/23 01:17:38;;;;;;;;;;;;;;;;;;5019965;28;20021;-81
2021/08/23 01:20:04;;;;;;;;;;;;;;;;;;5017136;28;19913;-80
2021/08/23 01:22:29;;;;;;;;;;;;;;;;;;5024396;28;19917;-80
2021/08/23 01:24:54;;;;;;;;;;;;;;;;;;5017805;28;19918;-81
2021/08/23 01:27:19;;;;;;;;;;;;;;;;;;5023816;28;19917;-81
2021/08/23 01:29:45;;;;;;;;;;;;;;;;;;5032924;28;19914;-80
2021/08/23 01:32:10;;;;;;;;;;;;;;;;;;5018560;28;19929;-81
2021/08/23 01:34:35;;;;;;;;;;;;;;;;;;5030838;28;19966;-80
2021/08/23 01:37:01;;;;;;;;;;;;;;;;;;5021499;28;19940;-81
2021/08/23 01:39:26;;;;;;;;;;;;;;;;;;5055894;28;19918;-81
2021/08/23 01:41:51;;;;;;;;;;;;;;;;;;5019464;28;19914;-81
2021/08/23 01:44:16;;;;;;;;;;;;;;;;;;5018654;28;19925;-80
2021/08/23 01:46:42;;;;;;;;;;;;;;;;;;5022565;28;19972;-82
2021/08/23 01:49:07;;;;;;;;;;;;;;;;;;5033994;28;19922;-82
2021/08/23 01:51:32;;;;;;;;;;;;;;;;;;5026272;28;19965;-82
2021/08/23 01:53:58;;;;;;;;;;;;;;;;;;5033118;28;19905;-82
2021/08/23 01:56:23;;;;;;;;;;;;;;;;;;5017536;28;19902;-80
2021/08/23 01:58:48;;;;;;;;;;;;;;;;;;5028458;28;19925;-81
2021/08/23 02:01:13;;;;;;;;;;;;;;;;;;5033770;28;19976;-81
2021/08/23 02:03:39;;;;;;;;;;;;;;;;;;5027935;28;19920;-80
2021/08/23 02:06:04;;;;;;;;;;;;;;;;;;5018448;28;19909;-80
2021/08/23 02:08:29;;;;;;;;;;;;;;;;;;5048209;28;19958;-82
2021/08/23 02:10:54;;;;;;;;;;;;;;;;;;5027026;28;19953;-82
2021/08/23 02:13:20;;;;;;;;;;;;;;;;;;5016908;28;19917;-82
2021/08/23 02:15:45;;;;;;;;;;;;;;;;;;5022944;28;19914;-81
2021/08/23 02:18:10;;;;;;;;;;;;;;;;;;5047436;28;19928;-82
2021/08/23 02:20:36;;;;;;;;;;;;;;;;;;5036342;28;19917;-80
2021/08/23 02:23:01;;;;;;;;;;;;;;;;;;5024975;28;19927;-81
2021/08/23 02:25:26;;;;;;;;;;;;;;;;;;5019123;28;19948;-81
2021/08/23 02:27:51;;;;;;;;;;;;;;;;;;5054189;28;19906;-82
2021/08/23 02:30:17;;;;;;;;;;;;;;;;;;5005547;28;19956;-81
2021/08/23 02:32:42;;;;;;;;;;;;;;;;;;5015254;28;19914;-82
2021/08/23 02:35:10;;;;;;;;;;;;;;;;;;5022683;28;19918;-81
2021/08/23 02:37:35;;;;;;;;;;;;;;;;;;5016187;28;19921;-81
2021/08/23 02:40:02;;;;;;;;;;;;;;;;;;5053462;28;19956;-80
2021/08/23 02:42:28;;;;;;;;;;;;;;;;;;5045792;28;19937;-80
2021/08/23 02:44:53;;;;;;;;;;;;;;;;;;5015948;28;19928;-82
2021/08/23 02:47:18;;;;;;;;;;;;;;;;;;5021032;28;19926;-79
2021/08/23 02:49:43;;;;;;;;;;;;;;;;;;5018737;28;19941;-81
2021/08/23 02:52:08;;;;;;;;;;;;;;;;;;5023146;28;19909;-81
2021/08/23 02:54:34;;;;;;;;;;;;;;;;;;5030568;28;19941;-78
2021/08/23 02:56:59;;;;;;;;;;;;;;;;;;5014709;28;19935;-81
2021/08/23 02:59:24;;;;;;;;;;;;;;;;;;5020186;28;19968;-80
2021/08/23 03:01:52;;;;;;;;;;;;;;;;;;5016798;28;19917;-82
2021/08/23 03:04:17;;;;;;;;;;;;;;;;;;5052901;28;19925;-80
2021/08/23 03:06:42;;;;;;;;;;;;;;;;;;5045240;28;19909;-81
2021/08/23 03:09:07;;;;;;;;;;;;;;;;;;5016943;28;19967;-80
2021/08/23 03:11:33;;;;;;;;;;;;;;;;;;5020629;28;19999;-80
2021/08/23 03:13:58;;;;;;;;;;;;;;;;;;5015208;28;19980;-80
2021/08/23 03:16:23;;;;;;;;;;;;;;;;;;5051254;28;19918;-78
2021/08/23 03:18:48;;;;;;;;;;;;;;;;;;5013970;28;19937;-82
2021/08/23 03:21:13;;;;;;;;;;;;;;;;;;5012906;28;20314;-81
2021/08/23 03:23:39;;;;;;;;;;;;;;;;;;5022357;28;19917;-79
2021/08/23 03:26:04;;;;;;;;;;;;;;;;;;5046136;28;20603;-81
2021/08/23 03:28:29;;;;;;;;;;;;;;;;;;5032476;28;19945;-79
2021/08/23 03:30:54;;;;;;;;;;;;;;;;;;5013004;28;19949;-79
2021/08/23 03:33:20;;;;;;;;;;;;;;;;;;5013552;28;19928;-82
2021/08/23 03:35:45;;;;;;;;;;;;;;;;;;5018863;28;19917;-78
2021/08/23 03:38:10;;;;;;;;;;;;;;;;;;5014677;28;19928;-79
2021/08/23 03:40:35;;;;;;;;;;;;;;;;;;5021534;28;19957;-80
2021/08/23 03:43:01;;;;;;;;;;;;;;;;;;5013732;28;19902;-82
2021/08/23 03:45:26;;;;;;;;;;;;;;;;;;5015408;28;19929;-79
2021/08/23 03:47:51;;;;;;;;;;;;;;;;;;5020902;28;20243;-81
2021/08/23 03:50:19;;;;;;;;;;;;;;;;;;5016456;28;19918;-80
2021/08/23 03:52:44;;;;;;;;;;;;;;;;;;5037466;28;19984;-81
2021/08/23 03:55:09;;;;;;;;;;;;;;;;;;5020504;28;19937;-80
2021/08/23 03:57:35;;;;;;;;;;;;;;;;;;5020533;28;19921;-82
2021/08/23 04:00:00;;;;;;;;;;;;;;;;;;5020009;28;20105;-79
2021/08/23 04:02:26;;;;;;;;;;;;;;;;;;5019195;28;19914;-79
2021/08/23 04:04:51;;;;;;;;;;;;;;;;;;5053413;28;19918;-81
2021/08/23 04:07:16;;;;;;;;;;;;;;;;;;5016267;28;19918;-82
2021/08/23 04:09:42;;;;;;;;;;;;;;;;;;5017619;28;19952;-80
2021/08/23 04:12:07;;;;;;;;;;;;;;;;;;5023921;28;20047;-82
2021/08/23 04:14:33;;;;;;;;;;;;;;;;;;5017810;28;19902;-81
2021/08/23 04:16:59;;;;;;;;;;;;;;;;;;5038177;28;19917;-82
2021/08/23 04:19:24;;;;;;;;;;;;;;;;;;5016756;28;19921;-79
2021/08/23 04:21:49;;;;;;;;;;;;;;;;;;5019017;28;19937;-80
2021/08/23 04:24:14;;;;;;;;;;;;;;;;;;5023439;28;19910;-80
2021/08/23 04:26:39;;;;;;;;;;;;;;;;;;5016297;28;19910;-81
2021/08/23 04:29:05;;;;;;;;;;;;;;;;;;5024124;28;19929;-82
2021/08/23 04:31:34;;;;;;;;;;;;;;;;;;5019822;28;19925;-80
2021/08/23 04:33:59;;;;;;;;;;;;;;;;;;5017104;28;19921;-80
2021/08/23 04:36:24;;;;;;;;;;;;;;;;;;5023007;28;19960;-80
2021/08/23 04:38:49;;;;;;;;;;;;;;;;;;5048032;28;19959;-82
2021/08/23 04:41:15;;;;;;;;;;;;;;;;;;5022164;28;19921;-82
2021/08/23 04:43:42;;;;;;;;;;;;;;;;;;5016376;28;19917;-81
2021/08/23 04:46:08;;;;;;;;;;;;;;;;;;5014974;28;19918;-83
2021/08/23 04:48:33;;;;;;;;;;;;;;;;;;5021664;28;19924;-81
2021/08/23 04:50:58;;;;;;;;;;;;;;;;;;5014158;28;20026;-82
2021/08/23 04:53:23;;;;;;;;;;;;;;;;;;5024466;28;19983;-80
2021/08/23 04:55:48;;;;;;;;;;;;;;;;;;5045217;28;20164;-83
2021/08/23 04:58:14;;;;;;;;;;;;;;;;;;5015171;28;20181;-81
2021/08/23 05:00:39;;;;;;;;;;;;;;;;;;5028433;28;19956;-81
2021/08/23 05:03:06;;;;;;;;;;;;;;;;;;5016143;28;19917;-82
2021/08/23 05:05:31;;;;;;;;;;;;;;;;;;5020376;28;19917;-81
2021/08/23 05:07:56;;;;;;;;;;;;;;;;;;5021842;28;19932;-81
2021/08/23 05:10:22;;;;;;;;;;;;;;;;;;5015000;28;19918;-81
2021/08/23 05:12:47;;;;;;;;;;;;;;;;;;5022137;28;19925;-81
2021/08/23 05:15:12;;;;;;;;;;;;;;;;;;5014078;28;19925;-82
2021/08/23 05:17:37;;;;;;;;;;;;;;;;;;5021109;28;19914;-85
2021/08/23 05:20:03;;;;;;;;;;;;;;;;;;5016210;28;19913;-80
2021/08/23 05:22:28;;;;;;;;;;;;;;;;;;5015852;28;19939;-80
2021/08/23 05:24:53;;;;;;;;;;;;;;;;;;5022089;28;20035;-80
2021/08/23 05:27:18;;;;;;;;;;;;;;;;;;5046077;28;19964;-82
2021/08/23 05:29:43;;;;;;;;;;;;;;;;;;5018851;28;19956;-83
2021/08/23 05:32:09;;;;;;;;;;;;;;;;;;5018012;28;19956;-81
2021/08/23 05:34:34;;;;;;;;;;;;;;;;;;5013153;28;19976;-81
2021/08/23 05:36:59;;;;;;;;;;;;;;;;;;5020661;28;19924;-82
2021/08/23 05:39:24;;;;;;;;;;;;;;;;;;5015206;28;19917;-83
2021/08/23 05:41:50;;;;;;;;;;;;;;;;;;5019293;28;19918;-81
2021/08/23 05:44:15;;;;;;;;;;;;;;;;;;5016155;28;19917;-83
2021/08/23 05:46:40;;;;;;;;;;;;;;;;;;5019993;28;19981;-83
2021/08/23 05:49:05;;;;;;;;;;;;;;;;;;5037908;28;19964;-82
2021/08/23 05:51:31;;;;;;;;;;;;;;;;;;5033125;28;19922;-83
2021/08/23 05:53:56;;;;;;;;;;;;;;;;;;5021283;28;19956;-82
2021/08/23 05:56:22;;;;;;;;;;;;;;;;;;5021972;28;19917;-82
2021/08/23 05:58:47;;;;;;;;;;;;;;;;;;5024364;28;19914;-81
2021/08/23 06:01:12;;;;;;;;;;;;;;;;;;5021808;28;19989;-84
2021/08/23 06:03:37;;;;;;;;;;;;;;;;;;5024826;28;19941;-83
2021/08/23 06:06:02;;;;;;;;;;;;;;;;;;5023740;28;19913;-82
2021/08/23 06:08:28;;;;;;;;;;;;;;;;;;5023808;28;19922;-83
2021/08/23 06:10:53;;;;;;;;;;;;;;;;;;5019858;28;19946;-82
2021/08/23 06:13:18;;;;;;;;;;;;;;;;;;5023993;28;19929;-82
2021/08/23 06:15:43;;;;;;;;;;;;;;;;;;5024044;28;19913;-83
2021/08/23 06:18:08;;;;;;;;;;;;;;;;;;5023673;28;19944;-84
2021/08/23 06:20:34;;;;;;;;;;;;;;;;;;5021477;28;19921;-83
2021/08/23 06:22:59;;;;;;;;;;;;;;;;;;5022445;28;19929;-82
2021/08/23 06:25:24;;;;;;;;;;;;;;;;;;5033690;28;19925;-79
2021/08/23 06:27:49;;;;;;;;;;;;;;;;;;5016637;28;20826;-79
2021/08/23 06:30:15;;;;;;;;;;;;;;;;;;5015303;28;19987;-80
2021/08/23 06:32:40;;;;;;;;;;;;;;;;;;5013120;28;19983;-81
2021/08/23 06:35:05;;;;;;;;;;;;;;;;;;5012698;28;19918;-79
2021/08/23 06:37:36;;;;;;;;;;;;;;;;;;5043407;28;19918;-79
2021/08/23 06:40:07;;;;;;;;;;;;;;;;;;5013301;28;20130;-78
2021/08/23 06:42:32;;;;;;;;;;;;;;;;;;5015019;28;19949;-79
2021/08/23 06:44:57;;;;;;;;;;;;;;;;;;5014796;28;19918;-79
2021/08/23 06:47:27;;;;;;;;;;;;;;;;;;5018666;28;19921;-81
2021/08/23 06:49:52;;;;;;;;;;;;;;;;;;5014954;28;19964;-79
2021/08/23 06:52:17;;;;;;;;;;;;;;;;;;5014151;28;19933;-79
2021/08/23 06:54:43;;;;;;;;;;;;;;;;;;5013933;28;19956;-80
2021/08/23 06:57:08;;;;;;;;;;;;;;;;;;5012373;28;19921;-78
2021/08/23 06:59:33;;;;;;;;;;;;;;;;;;5012586;28;19928;-81
2021/08/23 07:01:58;;;;;;;;;;;;;;;;;;5029057;28;19921;-80
2021/08/23 07:04:24;;;;;;;;;;;;;;;;;;5011513;28;19929;-81
2021/08/23 07:06:49;;;;;;;;;;;;;;;;;;5012687;28;19920;-82
2021/08/23 07:09:14;;;;;;;;;;;;;;;;;;5013188;28;19945;-78
2021/08/23 07:11:39;;;;;;;;;;;;;;;;;;5012630;28;19936;-79
2021/08/23 07:14:04;;;;;;;;;;;;;;;;;;5013635;28;20003;-81
2021/08/23 07:16:30;;;;;;;;;;;;;;;;;;5009875;28;20039;-76
2021/08/23 07:18:56;;;;;;;;;;;;;;;;;;5006823;28;19925;-72
2021/08/23 07:21:21;;;;;;;;;;;;;;;;;;5011152;28;19930;-74
2021/08/23 07:23:46;;;;;;;;;;;;;;;;;;5006765;28;19972;-73
2021/08/23 07:26:11;;;;;;;;;;;;;;;;;;5011677;28;20306;-73
2021/08/23 07:28:37;;;;;;;;;;;;;;;;;;5010421;28;19918;-74
2021/08/23 07:31:02;;;;;;;;;;;;;;;;;;5030527;28;19998;-74
2021/08/23 07:33:27;;;;;;;;;;;;;;;;;;5019807;28;19924;-74
2021/08/23 07:35:55;;;;;;;;;;;;;;;;;;5015325;28;20305;-75
2021/08/23 07:38:20;;;;;;;;;;;;;;;;;;5013929;28;19917;-75
2021/08/23 07:40:46;;;;;;;;;;;;;;;;;;5032580;28;19922;-74
2021/08/23 07:43:11;;;;;;;;;;;;;;;;;;5014932;28;20001;-73
2021/08/23 07:45:36;;;;;;;;;;;;;;;;;;5015955;28;19918;-73
2021/08/23 07:48:01;;;;;;;;;;;;;;;;;;5029640;28;19925;-74
2021/08/23 07:50:27;;;;;;;;;;;;;;;;;;5013129;28;19996;-71
2021/08/23 07:52:52;;;;;;;;;;;;;;;;;;5012491;28;19976;-72
2021/08/23 07:55:17;;;;;;;;;;;;;;;;;;5013645;28;19914;-72
2021/08/23 07:57:42;;;;;;;;;;;;;;;;;;5031652;28;19928;-71
2021/08/23 08:00:08;;;;;;;;;;;;;;;;;;5013315;28;19924;-72
2021/08/23 08:02:37;;;;;;;;;;;;;;;;;;5020630;28;20292;-71
2021/08/23 08:05:04;;;;;;;;;;;;;;;;;;5016632;28;19928;-71
2021/08/23 08:07:30;;;;;;;;;;;;;;;;;;5014072;28;19917;-72
2021/08/23 08:09:55;;;;;;;;;;;;;;;;;;5012887;28;19917;-72
2021/08/23 08:12:20;;;;;;;;;;;;;;;;;;5016787;28;19929;-72
2021/08/23 08:14:45;;;;;;;;;;;;;;;;;;5013018;28;19940;-71
2021/08/23 08:17:11;;;;;;;;;;;;;;;;;;5016082;28;20368;-72
2021/08/23 08:19:36;;;;;;;;;;;;;;;;;;5044613;28;19957;-71
2021/08/23 08:22:05;;;;;;;;;;;;;;;;;;5014164;28;19961;-71
2021/08/23 08:24:30;;;;;;;;;;;;;;;;;;5011484;28;19928;-71
2021/08/23 08:26:56;;;;;;;;;;;;;;;;;;5030121;28;19913;-72
2021/08/23 08:29:21;;;;;;;;;;;;;;;;;;5032004;28;19918;-72
2021/08/23 08:31:46;;;;;;;;;;;;;;;;;;5017231;28;19928;-72
2021/08/23 08:34:11;;;;;;;;;;;;;;;;;;5018200;28;19922;-73
2021/08/23 08:36:37;;;;;;;;;;;;;;;;;;5016898;28;19936;-72
2021/08/23 08:39:03;;;;;;;;;;;;;;;;;;5030719;28;19917;-72
2021/08/23 08:41:30;;;;;;;;;;;;;;;;;;5018389;28;20246;-72
2021/08/23 08:43:55;;;;;;;;;;;;;;;;;;5019428;28;19922;-72
2021/08/23 08:46:20;;;;;;;;;;;;;;;;;;5016840;28;19913;-72
2021/08/23 08:48:46;;;;;;;;;;;;;;;;;;5019170;28;19944;-72
2021/08/23 08:51:11;;;;;;;;;;;;;;;;;;5033730;28;19941;-72
2021/08/23 08:53:36;;;;;;;;;;;;;;;;;;5017091;28;19928;-72
2021/08/23 08:56:04;;;;;;;;;;;;;;;;;;5030080;28;20350;-72
2021/08/23 08:58:29;;;;;;;;;;;;;;;;;;5022491;28;19918;-72
2021/08/23 09:00:55;;;;;;;;;;;;;;;;;;5017262;28;19944;-72
2021/08/23 09:03:20;;;;;;;;;;;;;;;;;;5016036;28;19924;-72
2021/08/23 09:05:51;;;;;;;;;;;;;;;;;;5016991;28;20013;-71
2021/08/23 09:08:17;;;;;;;;;;;;;;;;;;5017377;28;20053;-72
2021/08/23 09:10:43;;;;;;;;;;;;;;;;;;5018913;28;19972;-72
2021/08/23 09:13:08;;;;;;;;;;;;;;;;;;5018893;28;19925;-71
2021/08/23 09:15:33;;;;;;;;;;;;;;;;;;5019300;28;19987;-71
2021/08/23 09:17:58;;;;;;;;;;;;;;;;;;5008493;28;19917;-72
2021/08/23 09:20:24;;;;;;;;;;;;;;;;;;5017678;28;20016;-72
2021/08/23 09:22:49;;;;;;;;;;;;;;;;;;5019281;28;19921;-71
2021/08/23 09:25:17;;;;;;;;;;;;;;;;;;5035699;28;19917;-71
2021/08/23 09:27:42;;;;;;;;;;;;;;;;;;5022078;28;19922;-71
2021/08/23 09:30:07;;;;;;;;;;;;;;;;;;5017188;28;19951;-71
2021/08/23 09:32:32;;;;;;;;;;;;;;;;;;5019080;28;19921;-72
2021/08/23 09:34:58;;;;;;;;;;;;;;;;;;5035145;28;19918;-71
2021/08/23 09:37:23;;;;;;;;;;;;;;;;;;5015945;28;19914;-72
2021/08/23 09:39:48;;;;;;;;;;;;;;;;;;5016320;28;19989;-71
2021/08/23 09:42:14;;;;;;;;;;;;;;;;;;5014707;28;19917;-71
2021/08/23 09:44:39;;;;;;;;;;;;;;;;;;5029536;28;19940;-71
2021/08/23 09:47:05;;;;;;;;;;;;;;;;;;5016653;28;19921;-72
2021/08/23 09:49:32;;;;;;;;;;;;;;;;;;5015666;28;19917;-72
2021/08/23 09:51:57;;;;;;;;;;;;;;;;;;5015165;28;19926;-71
2021/08/23 09:54:23;;;;;;;;;;;;;;;;;;5013733;28;19929;-71
2021/08/23 09:56:48;;;;;;;;;;;;;;;;;;5015169;28;19917;-72
2021/08/23 09:59:14;;;;;;;;;;;;;;;;;;5013368;28;19913;-71
2021/08/23 10:01:39;;;;;;;;;;;;;;;;;;5010876;28;20080;-71
2021/08/23 10:04:04;;;;;;;;;;;;;;;;;;5014773;28;21181;-72
2021/08/23 10:06:29;;;;;;;;;;;;;;;;;;5029168;28;19918;-72
2021/08/23 10:08:55;;;;;;;;;;;;;;;;;;5011974;28;19917;-73
2021/08/23 10:11:20;;;;;;;;;;;;;;;;;;5017495;28;19926;-72
2021/08/23 10:13:45;;;;;;;;;;;;;;;;;;5015382;28;19972;-72
2021/08/23 10:16:10;;;;;;;;;;;;;;;;;;5015536;28;19921;-72
2021/08/23 10:18:36;;;;;;;;;;;;;;;;;;5045144;28;19910;-73
2021/08/23 10:21:01;;;;;;;;;;;;;;;;;;5016654;28;19928;-72
2021/08/23 10:23:26;;;;;;;;;;;;;;;;;;5011863;28;19923;-72
2021/08/23 10:25:51;;;;;;;;;;;;;;;;;;5012506;28;20004;-72
2021/08/23 10:28:20;;;;;;;;;;;;;;;;;;5011884;28;19925;-71
2021/08/23 10:30:46;;;;;;;;;;;;;;;;;;5013445;28;19913;-72
2021/08/23 10:33:12;;;;;;;;;;;;;;;;;;5011004;28;19924;-72
2021/08/23 10:35:37;;;;;;;;;;;;;;;;;;5012074;28;20380;-72
2021/08/23 10:38:02;;;;;;;;;;;;;;;;;;5012995;28;19940;-72
2021/08/23 10:40:27;;;;;;;;;;;;;;;;;;5012793;28;19918;-72
2021/08/23 10:42:53;;;;;;;;;;;;;;;;;;5009325;28;19949;-72
2021/08/23 10:45:18;;;;;;;;;;;;;;;;;;5012645;28;19958;-71
2021/08/23 10:47:43;;;;;;;;;;;;;;;;;;5010489;28;19921;-72
2021/08/23 10:50:09;;;;;;;;;;;;;;;;;;5013612;28;19925;-72
2021/08/23 10:52:36;;;;;;;;;;;;;;;;;;5013895;28;19993;-72
2021/08/23 10:55:01;;;;;;;;;;;;;;;;;;5016300;28;19918;-72
2021/08/23 10:57:29;;;;;;;;;;;;;;;;;;5043551;28;19932;-72
2021/08/23 10:59:54;;;;;;;;;;;;;;;;;;5012201;28;19924;-71
2021/08/23 11:02:19;;;;;;;;;;;;;;;;;;5011293;28;19917;-72
2021/08/23 11:04:45;;;;;;;;;;;;;;;;;;5012111;28;19921;-72
2021/08/23 11:07:10;;;;;;;;;;;;;;;;;;5010537;28;19924;-71
2021/08/23 11:09:35;;;;;;;;;;;;;;;;;;5011373;28;19924;-72
2021/08/23 11:12:00;;;;;;;;;;;;;;;;;;5015193;28;19932;-71
2021/08/23 11:14:26;;;;;;;;;;;;;;;;;;5013935;28;19922;-71
2021/08/23 11:16:51;;;;;;;;;;;;;;;;;;5011954;28;19917;-71
2021/08/23 11:19:16;;;;;;;;;;;;;;;;;;5015404;28;19959;-72
2021/08/23 11:21:47;;;;;;;;;;;;;;;;;;5015755;28;19921;-71
2021/08/23 11:24:12;;;;;;;;;;;;;;;;;;5014285;28;19945;-72
2021/08/23 11:26:37;;;;;;;;;;;;;;;;;;5011797;28;19921;-73
2021/08/23 11:29:03;;;;;;;;;;;;;;;;;;5014019;28;20401;-73
2021/08/23 11:31:28;;;;;;;;;;;;;;;;;;5016326;28;19933;-73
2021/08/23 11:33:53;;;;;;;;;;;;;;;;;;5017927;28;19901;-73
2021/08/23 11:36:19;;;;;;;;;;;;;;;;;;5022893;28;19940;-74
2021/08/23 11:38:44;;;;;;;;;;;;;;;;;;5018054;28;20004;-74
2021/08/23 11:41:09;;;;;;;;;;;;;;;;;;5018197;28;19967;-73
2021/08/23 11:43:34;;;;;;;;;;;;;;;;;;5021242;28;19944;-73
2021/08/23 11:46:00;;;;;;;;;;;;;;;;;;5020993;28;19909;-73
2021/08/23 11:48:28;;;;;;;;;;;;;;;;;;5021007;28;19918;-73
2021/08/23 11:50:53;;;;;;;;;;;;;;;;;;5019709;28;19928;-73
2021/08/23 11:53:22;;;;;;;;;;;;;;;;;;5018103;28;19905;-74
2021/08/23 11:55:49;;;;;;;;;;;;;;;;;;5020859;28;19969;-74
2021/08/23 11:58:17;;;;;;;;;;;;;;;;;;5011986;28;19925;-74
2021/08/23 12:00:42;;;;;;;;;;;;;;;;;;5019493;28;19935;-74
2021/08/23 12:03:09;;;;;;;;;;;;;;;;;;5020343;28;19910;-74
2021/08/23 12:05:34;;;;;;;;;;;;;;;;;;5021109;28;19901;-74
2021/08/23 12:07:59;;;;;;;;;;;;;;;;;;5021298;28;19945;-74
2021/08/23 12:10:25;;;;;;;;;;;;;;;;;;5024979;28;19906;-74
2021/08/23 12:12:50;;;;;;;;;;;;;;;;;;5024506;28;19925;-74
2021/08/23 12:15:15;;;;;;;;;;;;;;;;;;5023490;28;19952;-74
2021/08/23 12:17:43;;;;;;;;;;;;;;;;;;5022004;28;20206;-73
2021/08/23 12:20:08;;;;;;;;;;;;;;;;;;5025419;28;19913;-73
2021/08/23 12:22:34;;;;;;;;;;;;;;;;;;5024136;28;19977;-72
2021/08/23 12:25:01;;;;;;;;;;;;;;;;;;5040794;28;19918;-72
2021/08/23 12:27:26;;;;;;;;;;;;;;;;;;5054129;28;19909;-72
2021/08/23 12:29:51;;;;;;;;;;;;;;;;;;5025246;28;19919;-74
2021/08/23 12:32:17;;;;;;;;;;;;;;;;;;5023008;28;19909;-72
2021/08/23 12:34:42;;;;;;;;;;;;;;;;;;5021083;28;19917;-72
2021/08/23 12:37:07;;;;;;;;;;;;;;;;;;5023755;28;19959;-70
2021/08/23 12:39:32;;;;;;;;;;;;;;;;;;5022042;28;19952;-71
2021/08/23 12:41:58;;;;;;;;;;;;;;;;;;5027597;28;19914;-72
2021/08/23 12:44:23;;;;;;;;;;;;;;;;;;5023823;28;19929;-72
2021/08/23 12:46:48;;;;;;;;;;;;;;;;;;5023265;28;19913;-73
2021/08/23 12:49:13;;;;;;;;;;;;;;;;;;5023078;28;19922;-72
2021/08/23 12:51:39;;;;;;;;;;;;;;;;;;5022175;28;19908;-71
2021/08/23 12:54:04;;;;;;;;;;;;;;;;;;5023024;28;19967;-71
2021/08/23 12:56:29;;;;;;;;;;;;;;;;;;5036262;28;19917;-72
2021/08/23 12:58:54;;;;;;;;;;;;;;;;;;5022016;28;19914;-72
2021/08/23 13:01:20;;;;;;;;;;;;;;;;;;5023713;28;19902;-71
2021/08/23 13:03:47;;;;;;;;;;;;;;;;;;5023019;28;19977;-73
2021/08/23 13:06:13;;;;;;;;;;;;;;;;;;5038264;28;20382;-73
2021/08/23 13:08:38;;;;;;;;;;;;;;;;;;5022474;28;19918;-72
2021/08/23 13:11:03;;;;;;;;;;;;;;;;;;5021170;28;19898;-72
2021/08/23 13:13:28;;;;;;;;;;;;;;;;;;5020923;28;19981;-73
2021/08/23 13:15:53;;;;;;;;;;;;;;;;;;5020825;28;19914;-72
2021/08/23 13:18:19;;;;;;;;;;;;;;;;;;5024529;28;19924;-73
2021/08/23 13:20:44;;;;;;;;;;;;;;;;;;5019890;28;20028;-72
2021/08/23 13:23:11;;;;;;;;;;;;;;;;;;5017124;28;20014;-72
2021/08/23 13:25:37;;;;;;;;;;;;;;;;;;5020232;28;20062;-73
2021/08/23 13:28:03;;;;;;;;;;;;;;;;;;5019424;28;19917;-72
2021/08/23 13:30:28;;;;;;;;;;;;;;;;;;5020460;28;20339;-72
2021/08/23 13:32:53;;;;;;;;;;;;;;;;;;5020430;28;19953;-72
2021/08/23 13:35:18;;;;;;;;;;;;;;;;;;5021015;28;19906;-72
2021/08/23 13:37:46;;;;;;;;;;;;;;;;;;5021245;28;19936;-72
2021/08/23 13:40:11;;;;;;;;;;;;;;;;;;5021423;28;19905;-71
2021/08/23 13:42:36;;;;;;;;;;;;;;;;;;5025771;28;19949;-72
2021/08/23 13:45:02;;;;;;;;;;;;;;;;;;5020249;28;20249;-72
2021/08/23 13:47:27;;;;;;;;;;;;;;;;;;5035360;28;19932;-72
2021/08/23 13:49:52;;;;;;;;;;;;;;;;;;5020851;28;20455;-73
2021/08/23 13:52:17;;;;;;;;;;;;;;;;;;5023064;28;20062;-72
2021/08/23 13:54:43;;;;;;;;;;;;;;;;;;5019850;28;19992;-71
2021/08/23 13:57:08;;;;;;;;;;;;;;;;;;5017968;28;19917;-72
2021/08/23 13:59:33;;;;;;;;;;;;;;;;;;5051912;28;19925;-72
2021/08/23 14:01:58;;;;;;;;;;;;;;;;;;5020208;28;19936;-72
2021/08/23 14:04:25;;;;;;;;;;;;;;;;;;5037164;28;20226;-73
2021/08/23 14:06:51;;;;;;;;;;;;;;;;;;5036425;28;20018;-73
2021/08/23 14:09:16;;;;;;;;;;;;;;;;;;5025076;28;19924;-74
2021/08/23 14:11:41;;;;;;;;;;;;;;;;;;5019690;28;19909;-72
2021/08/23 14:14:06;;;;;;;;;;;;;;;;;;5036340;28;20319;-72
2021/08/23 14:16:32;;;;;;;;;;;;;;;;;;5022940;28;19918;-73
2021/08/23 14:18:57;;;;;;;;;;;;;;;;;;5019109;28;19924;-73
2021/08/23 14:21:22;;;;;;;;;;;;;;;;;;5026176;28;19908;-72
2021/08/23 14:23:48;;;;;;;;;;;;;;;;;;5021619;28;19913;-74
2021/08/23 14:26:15;;;;;;;;;;;;;;;;;;5022499;28;19909;-74
2021/08/23 14:28:40;;;;;;;;;;;;;;;;;;5035584;28;19902;-74
2021/08/23 14:31:05;;;;;;;;;;;;;;;;;;5019665;28;20023;-74
2021/08/23 14:33:31;;;;;;;;;;;;;;;;;;5021327;28;19936;-74
2021/08/23 14:35:56;;;;;;;;;;;;;;;;;;5025919;28;19917;-72
2021/08/23 14:38:21;;;;;;;;;;;;;;;;;;5023067;28;19921;-69
2021/08/23 14:40:46;;;;;;;;;;;;;;;;;;5022767;28;19928;-69
2021/08/23 14:43:12;;;;;;;;;;;;;;;;;;5021112;28;20145;-69
2021/08/23 14:45:37;;;;;;;;;;;;;;;;;;5019889;28;19921;-69
2021/08/23 14:48:03;;;;;;;;;;;;;;;;;;5023545;28;19929;-71
2021/08/23 14:50:28;;;;;;;;;;;;;;;;;;5019625;28;19928;-71
2021/08/23 14:52:53;;;;;;;;;;;;;;;;;;5021604;28;20171;-71
2021/08/23 14:55:18;;;;;;;;;;;;;;;;;;5016430;28;19957;-71
2021/08/23 14:57:44;;;;;;;;;;;;;;;;;;5024195;28;19913;-70
2021/08/23 15:00:09;;;;;;;;;;;;;;;;;;5016461;28;19913;-71
2021/08/23 15:02:36;;;;;;;;;;;;;;;;;;5020491;28;20073;-70
2021/08/23 15:05:02;;;;;;;;;;;;;;;;;;5015163;28;20005;-71
2021/08/23 15:07:27;;;;;;;;;;;;;;;;;;5017124;28;19917;-71
2021/08/23 15:09:52;;;;;;;;;;;;;;;;;;5023043;28;19918;-70
2021/08/23 15:12:17;;;;;;;;;;;;;;;;;;5013947;28;19949;-71
2021/08/23 15:14:42;;;;;;;;;;;;;;;;;;5020490;28;19916;-71
2021/08/23 15:17:08;;;;;;;;;;;;;;;;;;5014719;28;19977;-71
2021/08/23 15:19:34;;;;;;;;;;;;;;;;;;5014570;28;19913;-70
2021/08/23 15:22:02;;;;;;;;;;;;;;;;;;5023415;28;19918;-71
2021/08/23 15:24:27;;;;;;;;;;;;;;;;;;5014680;28;19913;-71
2021/08/23 15:26:52;;;;;;;;;;;;;;;;;;5022543;28;19914;-72
2021/08/23 15:29:20;;;;;;;;;;;;;;;;;;5014042;28;19917;-72
2021/08/23 15:31:46;;;;;;;;;;;;;;;;;;5013940;28;19922;-72
2021/08/23 15:34:11;;;;;;;;;;;;;;;;;;5027133;28;19921;-72
2021/08/23 15:36:36;;;;;;;;;;;;;;;;;;5016164;28;19940;-72
2021/08/23 15:39:02;;;;;;;;;;;;;;;;;;5022369;28;19913;-72
2021/08/23 15:41:27;;;;;;;;;;;;;;;;;;5014554;28;19909;-71
2021/08/23 15:43:52;;;;;;;;;;;;;;;;;;5013520;28;20112;-73
2021/08/23 15:46:17;;;;;;;;;;;;;;;;;;5023140;28;19956;-71
2021/08/23 15:48:43;;;;;;;;;;;;;;;;;;5013977;28;19932;-70
2021/08/23 15:51:09;;;;;;;;;;;;;;;;;;5046072;28;19913;-71
2021/08/23 15:53:34;;;;;;;;;;;;;;;;;;5048159;28;19963;-70
2021/08/23 15:55:59;;;;;;;;;;;;;;;;;;5022520;28;19925;-70
2021/08/23 15:58:25;;;;;;;;;;;;;;;;;;5024676;28;19945;-71
2021/08/23 16:00:50;;;;;;;;;;;;;;;;;;5016069;28;20220;-70
2021/08/23 16:03:16;;;;;;;;;;;;;;;;;;5020030;28;19914;-70
2021/08/23 16:05:41;;;;;;;;;;;;;;;;;;5017661;28;20011;-71
2021/08/23 16:08:07;;;;;;;;;;;;;;;;;;5016290;28;19917;-72
2021/08/23 16:10:34;;;;;;;;;;;;;;;;;;5021966;28;19921;-69
2021/08/23 16:12:59;;;;;;;;;;;;;;;;;;5015297;28;19918;-69
2021/08/23 16:15:24;;;;;;;;;;;;;;;;;;5023521;28;20016;-69
2021/08/23 16:17:50;;;;;;;;;;;;;;;;;;5018532;28;19917;-69
2021/08/23 16:20:15;;;;;;;;;;;;;;;;;;5013979;28;19918;-69
2021/08/23 16:22:40;;;;;;;;;;;;;;;;;;5020880;28;19906;-69
2021/08/23 16:25:06;;;;;;;;;;;;;;;;;;5044060;28;19957;-69
2021/08/23 16:27:31;;;;;;;;;;;;;;;;;;5027002;28;19918;-70
2021/08/23 16:29:56;;;;;;;;;;;;;;;;;;5015683;28;19920;-69
2021/08/23 16:32:21;;;;;;;;;;;;;;;;;;5045042;28;20100;-69
2021/08/23 16:34:46;;;;;;;;;;;;;;;;;;5020468;28;19917;-69